sensor_id;sensor_type;location;lat;lon;timestamp;P1;durP1;ratioP1;P2;durP2;ratioP2
55076;SDS011;40971;44.702;11.030;2022-10-19T00:03:35;96.78;;;40.33;;
55076;SDS011;40971;44.702;11.030;2022-10-19T00:06:19;107.55;;;41.45;;
55076;SDS011;40971;44.702;11.030;2022-10-19T00:09:03;86.97;;;32.90;;
55076;SDS011;40971;44.702;11.030;2022-10-19T00:11:32;66.68;;;27.77;;
55076;SDS011;40971;44.702;11.030;2022-10-19T00:13:59;56.03;;;25.38;;
55076;SDS011;40971;44.702;11.030;2022-10-19T00:16:27;55.95;;;25.60;;
55076;SDS011;40971;44.702;11.030;2022-10-19T00:18:55;55.35;;;24.73;;
55076;SDS011;40971;44.702;11.030;2022-10-19T00:21:39;66.38;;;27.20;;
55076;SDS011;40971;44.702;11.030;2022-10-19T00:24:06;86.22;;;32.17;;
55076;SDS011;40971;44.702;11.030;2022-10-19T00:26:31;89.85;;;32.80;;
55076;SDS011;40971;44.702;11.030;2022-10-19T00:28:57;88.47;;;35.50;;
55076;SDS011;40971;44.702;11.030;2022-10-19T00:31:34;79.38;;;31.33;;
55076;SDS011;40971;44.702;11.030;2022-10-19T00:33:59;66.85;;;27.70;;
55076;SDS011;40971;44.702;11.030;2022-10-19T00:36:29;67.25;;;27.73;;
55076;SDS011;40971;44.702;11.030;2022-10-19T00:38:57;77.00;;;29.98;;
55076;SDS011;40971;44.702;11.030;2022-10-19T00:41:23;71.28;;;31.10;;
55076;SDS011;40971;44.702;11.030;2022-10-19T00:46:40;84.22;;;32.60;;
55076;SDS011;40971;44.702;11.030;2022-10-19T00:49:18;93.93;;;33.30;;
55076;SDS011;40971;44.702;11.030;2022-10-19T00:51:54;88.68;;;34.00;;
55076;SDS011;40971;44.702;11.030;2022-10-19T00:54:22;89.25;;;31.23;;
55076;SDS011;40971;44.702;11.030;2022-10-19T00:56:59;85.10;;;34.75;;
55076;SDS011;40971;44.702;11.030;2022-10-19T00:59:25;98.07;;;35.10;;
55076;SDS011;40971;44.702;11.030;2022-10-19T01:01:55;90.22;;;34.45;;
55076;SDS011;40971;44.702;11.030;2022-10-19T01:04:22;111.07;;;39.33;;
55076;SDS011;40971;44.702;11.030;2022-10-19T01:06:50;114.13;;;40.22;;
55076;SDS011;40971;44.702;11.030;2022-10-19T01:09:16;95.10;;;35.83;;
55076;SDS011;40971;44.702;11.030;2022-10-19T01:11:54;104.30;;;38.45;;
55076;SDS011;40971;44.702;11.030;2022-10-19T01:22:35;105.90;;;34.85;;
55076;SDS011;40971;44.702;11.030;2022-10-19T01:30:31;75.20;;;28.33;;
55076;SDS011;40971;44.702;11.030;2022-10-19T01:38:33;74.13;;;29.77;;
55076;SDS011;40971;44.702;11.030;2022-10-19T01:43:50;71.88;;;26.60;;
55076;SDS011;40971;44.702;11.030;2022-10-19T01:46:29;77.72;;;27.95;;
55076;SDS011;40971;44.702;11.030;2022-10-19T01:49:02;66.60;;;27.75;;
55076;SDS011;40971;44.702;11.030;2022-10-19T01:51:33;70.32;;;27.73;;
55076;SDS011;40971;44.702;11.030;2022-10-19T01:54:03;70.28;;;28.17;;
55076;SDS011;40971;44.702;11.030;2022-10-19T01:56:33;63.22;;;25.73;;
55076;SDS011;40971;44.702;11.030;2022-10-19T01:59:02;64.57;;;26.08;;
55076;SDS011;40971;44.702;11.030;2022-10-19T02:01:32;67.90;;;26.05;;
55076;SDS011;40971;44.702;11.030;2022-10-19T02:04:01;67.88;;;29.27;;
55076;SDS011;40971;44.702;11.030;2022-10-19T02:06:27;99.32;;;37.13;;
55076;SDS011;40971;44.702;11.030;2022-10-19T02:08:53;79.47;;;31.95;;
55076;SDS011;40971;44.702;11.030;2022-10-19T02:11:19;105.65;;;40.70;;
55076;SDS011;40971;44.702;11.030;2022-10-19T02:14:08;134.15;;;45.40;;
55076;SDS011;40971;44.702;11.030;2022-10-19T02:16:39;111.40;;;36.05;;
55076;SDS011;40971;44.702;11.030;2022-10-19T02:19:08;83.90;;;29.67;;
55076;SDS011;40971;44.702;11.030;2022-10-19T02:21:37;115.32;;;39.45;;
55076;SDS011;40971;44.702;11.030;2022-10-19T02:24:02;99.30;;;34.88;;
55076;SDS011;40971;44.702;11.030;2022-10-19T02:26:28;87.60;;;35.10;;
55076;SDS011;40971;44.702;11.030;2022-10-19T02:28:54;117.57;;;39.58;;
55076;SDS011;40971;44.702;11.030;2022-10-19T02:31:20;102.30;;;34.25;;
55076;SDS011;40971;44.702;11.030;2022-10-19T02:33:46;95.80;;;33.80;;
55076;SDS011;40971;44.702;11.030;2022-10-19T02:36:12;96.75;;;34.47;;
55076;SDS011;40971;44.702;11.030;2022-10-19T02:38:37;85.15;;;34.28;;
55076;SDS011;40971;44.702;11.030;2022-10-19T02:41:17;92.78;;;34.17;;
55076;SDS011;40971;44.702;11.030;2022-10-19T02:43:48;88.97;;;33.33;;
55076;SDS011;40971;44.702;11.030;2022-10-19T02:46:19;98.45;;;36.78;;
55076;SDS011;40971;44.702;11.030;2022-10-19T02:48:51;97.25;;;39.80;;
55076;SDS011;40971;44.702;11.030;2022-10-19T02:51:25;88.43;;;34.90;;
55076;SDS011;40971;44.702;11.030;2022-10-19T02:54:06;82.35;;;33.20;;
55076;SDS011;40971;44.702;11.030;2022-10-19T02:56:32;76.13;;;30.60;;
55076;SDS011;40971;44.702;11.030;2022-10-19T02:58:59;69.97;;;29.83;;
55076;SDS011;40971;44.702;11.030;2022-10-19T03:01:25;84.60;;;32.33;;
55076;SDS011;40971;44.702;11.030;2022-10-19T03:03:58;77.50;;;30.35;;
55076;SDS011;40971;44.702;11.030;2022-10-19T03:06:23;105.25;;;37.25;;
55076;SDS011;40971;44.702;11.030;2022-10-19T03:08:49;91.63;;;35.42;;
55076;SDS011;40971;44.702;11.030;2022-10-19T03:11:15;91.63;;;35.55;;
55076;SDS011;40971;44.702;11.030;2022-10-19T03:13:40;107.00;;;39.10;;
55076;SDS011;40971;44.702;11.030;2022-10-19T03:16:07;104.43;;;38.83;;
55076;SDS011;40971;44.702;11.030;2022-10-19T03:18:34;98.25;;;35.53;;
55076;SDS011;40971;44.702;11.030;2022-10-19T03:21:00;93.60;;;36.85;;
55076;SDS011;40971;44.702;11.030;2022-10-19T03:23:28;113.22;;;39.80;;
55076;SDS011;40971;44.702;11.030;2022-10-19T03:25:53;106.85;;;40.63;;
55076;SDS011;40971;44.702;11.030;2022-10-19T03:28:19;109.90;;;40.35;;
55076;SDS011;40971;44.702;11.030;2022-10-19T03:30:44;114.97;;;39.78;;
55076;SDS011;40971;44.702;11.030;2022-10-19T03:33:09;110.68;;;40.38;;
55076;SDS011;40971;44.702;11.030;2022-10-19T03:35:35;102.82;;;36.65;;
55076;SDS011;40971;44.702;11.030;2022-10-19T03:38:00;91.85;;;33.65;;
55076;SDS011;40971;44.702;11.030;2022-10-19T03:40:31;101.22;;;36.97;;
55076;SDS011;40971;44.702;11.030;2022-10-19T03:42:56;96.95;;;35.33;;
55076;SDS011;40971;44.702;11.030;2022-10-19T03:45:22;104.28;;;37.53;;
55076;SDS011;40971;44.702;11.030;2022-10-19T03:47:48;100.30;;;35.75;;
55076;SDS011;40971;44.702;11.030;2022-10-19T03:50:14;100.80;;;37.83;;
55076;SDS011;40971;44.702;11.030;2022-10-19T03:52:41;90.50;;;36.38;;
55076;SDS011;40971;44.702;11.030;2022-10-19T03:55:07;90.65;;;36.08;;
55076;SDS011;40971;44.702;11.030;2022-10-19T03:57:33;96.15;;;35.40;;
55076;SDS011;40971;44.702;11.030;2022-10-19T03:59:58;122.13;;;39.47;;
55076;SDS011;40971;44.702;11.030;2022-10-19T04:02:38;124.95;;;40.65;;
55076;SDS011;40971;44.702;11.030;2022-10-19T04:05:03;111.82;;;36.47;;
55076;SDS011;40971;44.702;11.030;2022-10-19T04:07:29;108.93;;;40.30;;
55076;SDS011;40971;44.702;11.030;2022-10-19T04:09:54;91.75;;;32.65;;
55076;SDS011;40971;44.702;11.030;2022-10-19T04:12:20;85.30;;;33.53;;
55076;SDS011;40971;44.702;11.030;2022-10-19T04:14:45;83.85;;;32.30;;
55076;SDS011;40971;44.702;11.030;2022-10-19T04:17:11;84.40;;;33.35;;
55076;SDS011;40971;44.702;11.030;2022-10-19T04:19:36;93.82;;;33.63;;
55076;SDS011;40971;44.702;11.030;2022-10-19T04:22:02;88.15;;;30.95;;
55076;SDS011;40971;44.702;11.030;2022-10-19T04:24:27;85.93;;;35.58;;
55076;SDS011;40971;44.702;11.030;2022-10-19T04:26:53;93.15;;;32.33;;
55076;SDS011;40971;44.702;11.030;2022-10-19T04:29:21;86.13;;;33.58;;
55076;SDS011;40971;44.702;11.030;2022-10-19T04:31:49;87.85;;;32.75;;
55076;SDS011;40971;44.702;11.030;2022-10-19T04:34:15;86.10;;;33.53;;
55076;SDS011;40971;44.702;11.030;2022-10-19T04:36:41;75.65;;;30.73;;
55076;SDS011;40971;44.702;11.030;2022-10-19T04:39:07;89.25;;;31.70;;
55076;SDS011;40971;44.702;11.030;2022-10-19T04:41:32;84.88;;;30.63;;
55076;SDS011;40971;44.702;11.030;2022-10-19T04:46:55;76.25;;;30.35;;
55076;SDS011;40971;44.702;11.030;2022-10-19T04:49:23;78.35;;;29.40;;
55076;SDS011;40971;44.702;11.030;2022-10-19T04:51:50;69.05;;;28.80;;
55076;SDS011;40971;44.702;11.030;2022-10-19T04:54:15;66.50;;;27.10;;
55076;SDS011;40971;44.702;11.030;2022-10-19T04:56:41;182.07;;;30.13;;
55076;SDS011;40971;44.702;11.030;2022-10-19T04:59:22;183.75;;;33.55;;
55076;SDS011;40971;44.702;11.030;2022-10-19T05:01:47;79.95;;;28.92;;
55076;SDS011;40971;44.702;11.030;2022-10-19T05:04:12;135.90;;;37.65;;
55076;SDS011;40971;44.702;11.030;2022-10-19T05:06:38;69.90;;;32.50;;
55076;SDS011;40971;44.702;11.030;2022-10-19T05:09:03;96.43;;;35.78;;
55076;SDS011;40971;44.702;11.030;2022-10-19T05:11:29;116.38;;;35.30;;
55076;SDS011;40971;44.702;11.030;2022-10-19T05:13:55;90.85;;;32.70;;
55076;SDS011;40971;44.702;11.030;2022-10-19T05:16:21;123.13;;;34.10;;
55076;SDS011;40971;44.702;11.030;2022-10-19T05:18:49;98.65;;;34.22;;
55076;SDS011;40971;44.702;11.030;2022-10-19T05:24:03;79.82;;;25.10;;
55076;SDS011;40971;44.702;11.030;2022-10-19T05:26:28;75.00;;;25.20;;
55076;SDS011;40971;44.702;11.030;2022-10-19T05:28:55;79.93;;;26.25;;
55076;SDS011;40971;44.702;11.030;2022-10-19T05:31:25;75.35;;;27.73;;
55076;SDS011;40971;44.702;11.030;2022-10-19T05:33:54;141.70;;;33.30;;
55076;SDS011;40971;44.702;11.030;2022-10-19T05:38:50;184.35;;;48.13;;
55076;SDS011;40971;44.702;11.030;2022-10-19T05:41:18;119.10;;;34.63;;
55076;SDS011;40971;44.702;11.030;2022-10-19T05:43:44;81.80;;;28.20;;
55076;SDS011;40971;44.702;11.030;2022-10-19T05:46:15;74.97;;;28.08;;
55076;SDS011;40971;44.702;11.030;2022-10-19T05:51:30;136.80;;;32.88;;
55076;SDS011;40971;44.702;11.030;2022-10-19T05:53:56;107.28;;;36.53;;
55076;SDS011;40971;44.702;11.030;2022-10-19T05:56:23;210.30;;;60.33;;
55076;SDS011;40971;44.702;11.030;2022-10-19T05:58:50;130.30;;;41.33;;
55076;SDS011;40971;44.702;11.030;2022-10-19T06:01:16;129.40;;;44.50;;
55076;SDS011;40971;44.702;11.030;2022-10-19T06:03:43;126.70;;;40.88;;
55076;SDS011;40971;44.702;11.030;2022-10-19T06:08:55;149.20;;;41.33;;
55076;SDS011;40971;44.702;11.030;2022-10-19T06:11:24;105.10;;;35.92;;
55076;SDS011;40971;44.702;11.030;2022-10-19T06:13:55;101.88;;;35.75;;
55076;SDS011;40971;44.702;11.030;2022-10-19T06:16:22;86.38;;;33.15;;
55076;SDS011;40971;44.702;11.030;2022-10-19T06:18:49;89.47;;;34.28;;
55076;SDS011;40971;44.702;11.030;2022-10-19T06:21:18;87.30;;;33.80;;
55076;SDS011;40971;44.702;11.030;2022-10-19T06:23:58;80.93;;;33.38;;
55076;SDS011;40971;44.702;11.030;2022-10-19T06:26:27;97.85;;;37.30;;
55076;SDS011;40971;44.702;11.030;2022-10-19T06:28:54;100.47;;;37.60;;
55076;SDS011;40971;44.702;11.030;2022-10-19T06:31:23;99.80;;;36.40;;
55076;SDS011;40971;44.702;11.030;2022-10-19T06:33:48;95.13;;;35.45;;
55076;SDS011;40971;44.702;11.030;2022-10-19T06:36:15;126.00;;;46.80;;
55076;SDS011;40971;44.702;11.030;2022-10-19T06:38:43;116.00;;;42.80;;
55076;SDS011;40971;44.702;11.030;2022-10-19T06:41:08;102.03;;;37.05;;
55076;SDS011;40971;44.702;11.030;2022-10-19T06:43:34;89.95;;;36.53;;
55076;SDS011;40971;44.702;11.030;2022-10-19T06:46:04;88.00;;;34.90;;
55076;SDS011;40971;44.702;11.030;2022-10-19T06:48:34;106.50;;;36.60;;
55076;SDS011;40971;44.702;11.030;2022-10-19T06:51:01;85.97;;;32.97;;
55076;SDS011;40971;44.702;11.030;2022-10-19T06:53:28;87.40;;;36.28;;
55076;SDS011;40971;44.702;11.030;2022-10-19T06:55:57;87.22;;;32.30;;
55076;SDS011;40971;44.702;11.030;2022-10-19T06:58:24;100.13;;;36.92;;
55076;SDS011;40971;44.702;11.030;2022-10-19T07:00:53;82.47;;;33.97;;
55076;SDS011;40971;44.702;11.030;2022-10-19T07:03:23;81.43;;;35.15;;
55076;SDS011;40971;44.702;11.030;2022-10-19T07:06:09;85.82;;;33.45;;
55076;SDS011;40971;44.702;11.030;2022-10-19T07:08:37;83.45;;;32.45;;
55076;SDS011;40971;44.702;11.030;2022-10-19T07:11:05;78.80;;;31.13;;
55076;SDS011;40971;44.702;11.030;2022-10-19T07:13:33;66.13;;;30.35;;
55076;SDS011;40971;44.702;11.030;2022-10-19T07:16:00;75.00;;;29.75;;
55076;SDS011;40971;44.702;11.030;2022-10-19T07:18:29;61.38;;;29.70;;
55076;SDS011;40971;44.702;11.030;2022-10-19T07:20:59;79.63;;;32.45;;
55076;SDS011;40971;44.702;11.030;2022-10-19T07:23:27;61.47;;;29.65;;
55076;SDS011;40971;44.702;11.030;2022-10-19T07:26:10;65.07;;;28.23;;
55076;SDS011;40971;44.702;11.030;2022-10-19T07:28:41;65.78;;;30.70;;
55076;SDS011;40971;44.702;11.030;2022-10-19T07:31:09;67.38;;;31.75;;
55076;SDS011;40971;44.702;11.030;2022-10-19T07:33:37;69.57;;;29.92;;
55076;SDS011;40971;44.702;11.030;2022-10-19T07:36:04;77.03;;;32.92;;
55076;SDS011;40971;44.702;11.030;2022-10-19T07:38:31;85.97;;;32.53;;
55076;SDS011;40971;44.702;11.030;2022-10-19T07:41:01;85.15;;;32.20;;
55076;SDS011;40971;44.702;11.030;2022-10-19T07:43:35;75.57;;;34.60;;
55076;SDS011;40971;44.702;11.030;2022-10-19T07:46:01;68.22;;;32.10;;
55076;SDS011;40971;44.702;11.030;2022-10-19T07:48:28;75.45;;;32.42;;
55076;SDS011;40971;44.702;11.030;2022-10-19T07:50:54;69.35;;;31.20;;
55076;SDS011;40971;44.702;11.030;2022-10-19T07:53:20;79.88;;;30.25;;
55076;SDS011;40971;44.702;11.030;2022-10-19T07:55:45;103.40;;;29.48;;
55076;SDS011;40971;44.702;11.030;2022-10-19T07:58:11;74.13;;;28.83;;
55076;SDS011;40971;44.702;11.030;2022-10-19T08:00:36;63.72;;;27.33;;
55076;SDS011;40971;44.702;11.030;2022-10-19T08:03:03;57.65;;;27.30;;
55076;SDS011;40971;44.702;11.030;2022-10-19T08:05:30;58.40;;;27.33;;
55076;SDS011;40971;44.702;11.030;2022-10-19T08:07:56;64.10;;;29.33;;
55076;SDS011;40971;44.702;11.030;2022-10-19T08:10:22;55.42;;;26.90;;
55076;SDS011;40971;44.702;11.030;2022-10-19T08:12:47;57.92;;;28.23;;
55076;SDS011;40971;44.702;11.030;2022-10-19T08:15:13;56.92;;;26.80;;
55076;SDS011;40971;44.702;11.030;2022-10-19T08:17:39;57.67;;;27.70;;
55076;SDS011;40971;44.702;11.030;2022-10-19T08:20:04;65.10;;;30.30;;
55076;SDS011;40971;44.702;11.030;2022-10-19T08:22:31;53.40;;;28.48;;
55076;SDS011;40971;44.702;11.030;2022-10-19T08:24:56;53.58;;;28.17;;
55076;SDS011;40971;44.702;11.030;2022-10-19T08:27:22;56.95;;;30.75;;
55076;SDS011;40971;44.702;11.030;2022-10-19T08:29:47;54.70;;;29.88;;
55076;SDS011;40971;44.702;11.030;2022-10-19T08:32:15;55.00;;;27.52;;
55076;SDS011;40971;44.702;11.030;2022-10-19T08:34:40;57.97;;;30.23;;
55076;SDS011;40971;44.702;11.030;2022-10-19T08:37:06;57.58;;;28.98;;
55076;SDS011;40971;44.702;11.030;2022-10-19T08:39:31;54.42;;;29.92;;
55076;SDS011;40971;44.702;11.030;2022-10-19T08:41:59;61.05;;;30.25;;
55076;SDS011;40971;44.702;11.030;2022-10-19T08:44:42;59.88;;;31.85;;
55076;SDS011;40971;44.702;11.030;2022-10-19T08:49:45;66.15;;;32.80;;
55076;SDS011;40971;44.702;11.030;2022-10-19T08:54:52;62.90;;;32.72;;
55076;SDS011;40971;44.702;11.030;2022-10-19T09:00:05;67.57;;;35.33;;
55076;SDS011;40971;44.702;11.030;2022-10-19T09:08:13;69.57;;;35.22;;
55076;SDS011;40971;44.702;11.030;2022-10-19T09:10:39;80.55;;;35.67;;
55076;SDS011;40971;44.702;11.030;2022-10-19T09:15:48;73.45;;;36.03;;
55076;SDS011;40971;44.702;11.030;2022-10-19T09:18:27;91.43;;;37.40;;
55076;SDS011;40971;44.702;11.030;2022-10-19T09:21:17;82.65;;;37.80;;
55076;SDS011;40971;44.702;11.030;2022-10-19T09:27:01;71.43;;;35.65;;
55076;SDS011;40971;44.702;11.030;2022-10-19T09:32:12;71.43;;;35.53;;
55076;SDS011;40971;44.702;11.030;2022-10-19T09:34:44;70.38;;;35.50;;
55076;SDS011;40971;44.702;11.030;2022-10-19T09:37:15;71.55;;;36.63;;
55076;SDS011;40971;44.702;11.030;2022-10-19T09:39:41;74.95;;;36.10;;
55076;SDS011;40971;44.702;11.030;2022-10-19T09:42:09;64.07;;;34.45;;
55076;SDS011;40971;44.702;11.030;2022-10-19T09:44:45;68.18;;;35.70;;
55076;SDS011;40971;44.702;11.030;2022-10-19T09:52:48;79.57;;;36.80;;
55076;SDS011;40971;44.702;11.030;2022-10-19T09:55:21;70.00;;;35.78;;
55076;SDS011;40971;44.702;11.030;2022-10-19T10:00:40;74.88;;;36.30;;
55076;SDS011;40971;44.702;11.030;2022-10-19T10:05:49;79.50;;;37.08;;
55076;SDS011;40971;44.702;11.030;2022-10-19T10:08:16;73.65;;;35.22;;
55076;SDS011;40971;44.702;11.030;2022-10-19T10:10:45;74.30;;;35.58;;
55076;SDS011;40971;44.702;11.030;2022-10-19T10:13:18;73.43;;;35.13;;
55076;SDS011;40971;44.702;11.030;2022-10-19T10:15:49;71.15;;;35.38;;
55076;SDS011;40971;44.702;11.030;2022-10-19T10:18:20;69.72;;;34.20;;
55076;SDS011;40971;44.702;11.030;2022-10-19T10:21:44;72.43;;;32.95;;
55076;SDS011;40971;44.702;11.030;2022-10-19T10:26:29;75.90;;;36.17;;
55076;SDS011;40971;44.702;11.030;2022-10-19T10:28:54;72.47;;;34.55;;
55076;SDS011;40971;44.702;11.030;2022-10-19T10:31:22;80.60;;;37.10;;
55076;SDS011;40971;44.702;11.030;2022-10-19T10:33:59;81.65;;;36.97;;
55076;SDS011;40971;44.702;11.030;2022-10-19T10:36:29;76.97;;;34.17;;
55076;SDS011;40971;44.702;11.030;2022-10-19T10:39:00;70.50;;;34.50;;
55076;SDS011;40971;44.702;11.030;2022-10-19T10:41:30;72.85;;;36.58;;
55076;SDS011;40971;44.702;11.030;2022-10-19T10:44:14;73.30;;;36.13;;
55076;SDS011;40971;44.702;11.030;2022-10-19T10:46:49;73.93;;;37.10;;
55076;SDS011;40971;44.702;11.030;2022-10-19T10:49:25;76.57;;;37.92;;
55076;SDS011;40971;44.702;11.030;2022-10-19T10:51:54;73.63;;;38.25;;
55076;SDS011;40971;44.702;11.030;2022-10-19T10:54:24;69.70;;;34.45;;
55076;SDS011;40971;44.702;11.030;2022-10-19T10:57:07;84.30;;;35.95;;
55076;SDS011;40971;44.702;11.030;2022-10-19T11:02:25;62.50;;;31.55;;
55076;SDS011;40971;44.702;11.030;2022-10-19T11:08:00;74.47;;;37.55;;
55076;SDS011;40971;44.702;11.030;2022-10-19T11:18:25;66.13;;;32.72;;
55076;SDS011;40971;44.702;11.030;2022-10-19T11:20:58;64.55;;;32.45;;
55076;SDS011;40971;44.702;11.030;2022-10-19T11:23:46;73.18;;;34.63;;
55076;SDS011;40971;44.702;11.030;2022-10-19T11:31:50;63.42;;;32.40;;
55076;SDS011;40971;44.702;11.030;2022-10-19T11:39:40;66.30;;;32.50;;
55076;SDS011;40971;44.702;11.030;2022-10-19T11:42:46;66.35;;;34.80;;
55076;SDS011;40971;44.702;11.030;2022-10-19T11:50:39;62.33;;;33.63;;
55076;SDS011;40971;44.702;11.030;2022-10-19T11:58:38;54.90;;;30.33;;
55076;SDS011;40971;44.702;11.030;2022-10-19T12:09:52;69.43;;;31.98;;
55076;SDS011;40971;44.702;11.030;2022-10-19T12:12:39;60.55;;;32.53;;
55076;SDS011;40971;44.702;11.030;2022-10-19T12:17:42;81.03;;;33.95;;
55076;SDS011;40971;44.702;11.030;2022-10-19T12:20:23;64.28;;;30.65;;
55076;SDS011;40971;44.702;11.030;2022-10-19T12:22:53;58.95;;;30.98;;
55076;SDS011;40971;44.702;11.030;2022-10-19T12:25:22;57.90;;;31.48;;
55076;SDS011;40971;44.702;11.030;2022-10-19T12:27:48;57.78;;;29.35;;
55076;SDS011;40971;44.702;11.030;2022-10-19T12:30:17;56.50;;;28.13;;
55076;SDS011;40971;44.702;11.030;2022-10-19T12:49:45;48.97;;;27.73;;
55076;SDS011;40971;44.702;11.030;2022-10-19T12:52:16;46.67;;;26.60;;
55076;SDS011;40971;44.702;11.030;2022-10-19T12:55:26;51.28;;;25.65;;
55076;SDS011;40971;44.702;11.030;2022-10-19T12:58:05;60.28;;;26.73;;
55076;SDS011;40971;44.702;11.030;2022-10-19T13:00:58;48.80;;;24.23;;
55076;SDS011;40971;44.702;11.030;2022-10-19T13:03:38;50.38;;;27.73;;
55076;SDS011;40971;44.702;11.030;2022-10-19T13:06:15;52.65;;;26.35;;
55076;SDS011;40971;44.702;11.030;2022-10-19T13:09:04;49.50;;;26.63;;
55076;SDS011;40971;44.702;11.030;2022-10-19T13:11:32;52.28;;;26.30;;
55076;SDS011;40971;44.702;11.030;2022-10-19T13:14:05;57.72;;;26.77;;
55076;SDS011;40971;44.702;11.030;2022-10-19T13:16:56;54.57;;;27.37;;
55076;SDS011;40971;44.702;11.030;2022-10-19T13:19:25;53.78;;;26.45;;
55076;SDS011;40971;44.702;11.030;2022-10-19T13:21:52;49.63;;;24.55;;
55076;SDS011;40971;44.702;11.030;2022-10-19T13:35:41;50.30;;;25.92;;
55076;SDS011;40971;44.702;11.030;2022-10-19T13:40:35;54.80;;;26.00;;
55076;SDS011;40971;44.702;11.030;2022-10-19T13:43:02;51.47;;;25.00;;
55076;SDS011;40971;44.702;11.030;2022-10-19T13:45:29;52.10;;;22.75;;
55076;SDS011;40971;44.702;11.030;2022-10-19T13:47:56;50.38;;;24.60;;
55076;SDS011;40971;44.702;11.030;2022-10-19T13:53:19;54.83;;;24.60;;
55076;SDS011;40971;44.702;11.030;2022-10-19T13:56:11;52.33;;;24.15;;
55076;SDS011;40971;44.702;11.030;2022-10-19T14:01:42;45.03;;;23.10;;
55076;SDS011;40971;44.702;11.030;2022-10-19T14:07:23;41.95;;;22.17;;
55076;SDS011;40971;44.702;11.030;2022-10-19T14:12:46;37.53;;;20.35;;
55076;SDS011;40971;44.702;11.030;2022-10-19T14:15:21;35.35;;;17.90;;
55076;SDS011;40971;44.702;11.030;2022-10-19T14:17:51;43.60;;;20.35;;
55076;SDS011;40971;44.702;11.030;2022-10-19T14:20:25;35.13;;;18.27;;
55076;SDS011;40971;44.702;11.030;2022-10-19T14:22:51;42.03;;;18.60;;
55076;SDS011;40971;44.702;11.030;2022-10-19T14:25:21;39.63;;;19.30;;
55076;SDS011;40971;44.702;11.030;2022-10-19T14:28:03;42.05;;;21.55;;
55076;SDS011;40971;44.702;11.030;2022-10-19T14:30:34;43.85;;;22.25;;
55076;SDS011;40971;44.702;11.030;2022-10-19T14:33:01;39.72;;;20.55;;
55076;SDS011;40971;44.702;11.030;2022-10-19T14:35:38;40.92;;;21.27;;
55076;SDS011;40971;44.702;11.030;2022-10-19T14:38:13;42.13;;;18.95;;
55076;SDS011;40971;44.702;11.030;2022-10-19T14:40:43;40.85;;;19.80;;
55076;SDS011;40971;44.702;11.030;2022-10-19T14:48:28;40.08;;;21.10;;
55076;SDS011;40971;44.702;11.030;2022-10-19T14:50:55;40.38;;;20.65;;
55076;SDS011;40971;44.702;11.030;2022-10-19T14:56:15;38.55;;;19.70;;
55076;SDS011;40971;44.702;11.030;2022-10-19T15:01:52;41.10;;;19.45;;
55076;SDS011;40971;44.702;11.030;2022-10-19T15:04:21;44.58;;;20.27;;
55076;SDS011;40971;44.702;11.030;2022-10-19T15:06:51;38.63;;;19.33;;
55076;SDS011;40971;44.702;11.030;2022-10-19T15:09:25;44.55;;;19.48;;
55076;SDS011;40971;44.702;11.030;2022-10-19T15:11:54;37.70;;;19.83;;
55076;SDS011;40971;44.702;11.030;2022-10-19T15:14:28;39.22;;;19.75;;
55076;SDS011;40971;44.702;11.030;2022-10-19T15:16:59;42.15;;;21.42;;
55076;SDS011;40971;44.702;11.030;2022-10-19T15:19:45;36.92;;;19.67;;
55076;SDS011;40971;44.702;11.030;2022-10-19T15:22:13;35.30;;;19.85;;
55076;SDS011;40971;44.702;11.030;2022-10-19T15:24:55;34.47;;;18.17;;
55076;SDS011;40971;44.702;11.030;2022-10-19T15:32:41;35.00;;;17.77;;
55076;SDS011;40971;44.702;11.030;2022-10-19T15:35:09;33.35;;;18.42;;
55076;SDS011;40971;44.702;11.030;2022-10-19T15:37:38;37.72;;;17.67;;
55076;SDS011;40971;44.702;11.030;2022-10-19T15:40:10;36.47;;;19.20;;
55076;SDS011;40971;44.702;11.030;2022-10-19T15:42:57;33.28;;;16.52;;
55076;SDS011;40971;44.702;11.030;2022-10-19T15:45:36;33.80;;;17.20;;
55076;SDS011;40971;44.702;11.030;2022-10-19T15:50:44;30.70;;;16.48;;
55076;SDS011;40971;44.702;11.030;2022-10-19T15:53:12;39.60;;;16.98;;
55076;SDS011;40971;44.702;11.030;2022-10-19T15:55:38;31.90;;;16.90;;
55076;SDS011;40971;44.702;11.030;2022-10-19T15:58:04;37.03;;;16.50;;
55076;SDS011;40971;44.702;11.030;2022-10-19T16:00:30;34.20;;;17.38;;
55076;SDS011;40971;44.702;11.030;2022-10-19T16:02:56;42.55;;;14.98;;
55076;SDS011;40971;44.702;11.030;2022-10-19T16:05:22;28.92;;;14.85;;
55076;SDS011;40971;44.702;11.030;2022-10-19T16:07:48;31.95;;;17.95;;
55076;SDS011;40971;44.702;11.030;2022-10-19T16:10:15;34.13;;;17.83;;
55076;SDS011;40971;44.702;11.030;2022-10-19T16:12:42;32.17;;;15.52;;
55076;SDS011;40971;44.702;11.030;2022-10-19T16:15:11;29.48;;;16.42;;
55076;SDS011;40971;44.702;11.030;2022-10-19T16:17:38;30.50;;;16.48;;
55076;SDS011;40971;44.702;11.030;2022-10-19T16:20:04;36.33;;;16.83;;
55076;SDS011;40971;44.702;11.030;2022-10-19T16:22:30;32.13;;;13.55;;
55076;SDS011;40971;44.702;11.030;2022-10-19T16:24:56;27.75;;;14.60;;
55076;SDS011;40971;44.702;11.030;2022-10-19T16:27:22;34.13;;;15.10;;
55076;SDS011;40971;44.702;11.030;2022-10-19T16:29:47;36.85;;;16.65;;
55076;SDS011;40971;44.702;11.030;2022-10-19T16:32:13;45.33;;;19.30;;
55076;SDS011;40971;44.702;11.030;2022-10-19T16:34:38;34.47;;;17.00;;
55076;SDS011;40971;44.702;11.030;2022-10-19T16:37:05;36.97;;;17.80;;
55076;SDS011;40971;44.702;11.030;2022-10-19T16:39:30;45.80;;;17.83;;
55076;SDS011;40971;44.702;11.030;2022-10-19T16:41:56;45.22;;;18.05;;
55076;SDS011;40971;44.702;11.030;2022-10-19T16:44:21;35.38;;;16.60;;
55076;SDS011;40971;44.702;11.030;2022-10-19T16:46:47;43.65;;;17.55;;
55076;SDS011;40971;44.702;11.030;2022-10-19T16:49:13;33.53;;;17.08;;
55076;SDS011;40971;44.702;11.030;2022-10-19T16:51:39;35.03;;;16.95;;
55076;SDS011;40971;44.702;11.030;2022-10-19T16:54:06;36.70;;;18.92;;
55076;SDS011;40971;44.702;11.030;2022-10-19T16:56:34;50.42;;;20.38;;
55076;SDS011;40971;44.702;11.030;2022-10-19T16:59:04;36.75;;;15.50;;
55076;SDS011;40971;44.702;11.030;2022-10-19T17:01:31;45.03;;;15.15;;
55076;SDS011;40971;44.702;11.030;2022-10-19T17:03:57;43.22;;;15.65;;
55076;SDS011;40971;44.702;11.030;2022-10-19T17:06:24;29.52;;;12.85;;
55076;SDS011;40971;44.702;11.030;2022-10-19T17:08:51;44.50;;;14.82;;
55076;SDS011;40971;44.702;11.030;2022-10-19T17:13:51;46.83;;;15.25;;
55076;SDS011;40971;44.702;11.030;2022-10-19T17:16:18;32.88;;;14.48;;
55076;SDS011;40971;44.702;11.030;2022-10-19T17:18:48;75.78;;;14.75;;
55076;SDS011;40971;44.702;11.030;2022-10-19T17:21:16;69.03;;;13.60;;
55076;SDS011;40971;44.702;11.030;2022-10-19T17:23:44;50.90;;;13.50;;
55076;SDS011;40971;44.702;11.030;2022-10-19T17:26:10;49.22;;;13.05;;
55076;SDS011;40971;44.702;11.030;2022-10-19T17:28:36;57.10;;;13.88;;